sensor_id;sensor_type;location;lat;lon;timestamp;P1;durP1;ratioP1;P2;durP2;ratioP2
49582;SDS011;36329;48.816;44.624;2023-04-25T00:02:19;4.2;;;1.7;;
49582;SDS011;36329;48.816;44.624;2023-04-25T00:05:21;4.2;;;1.7;;
49582;SDS011;36329;48.816;44.624;2023-04-25T00:08:24;3.2;;;1.6;;
49582;SDS011;36329;48.816;44.624;2023-04-25T00:11:27;3.6;;;1.9;;
49582;SDS011;36329;48.816;44.624;2023-04-25T00:14:29;3.1;;;1.9;;
49582;SDS011;36329;48.816;44.624;2023-04-25T00:17:31;3.4;;;1.5;;
49582;SDS011;36329;48.816;44.624;2023-04-25T00:20:35;5.4;;;1.5;;
49582;SDS011;36329;48.816;44.624;2023-04-25T00:23:37;3.8;;;1.6;;
49582;SDS011;36329;48.816;44.624;2023-04-25T00:26:39;6.1;;;1.8;;
49582;SDS011;36329;48.816;44.624;2023-04-25T00:29:42;5.2;;;1.6;;
49582;SDS011;36329;48.816;44.624;2023-04-25T00:32:45;3.4;;;1.8;;
49582;SDS011;36329;48.816;44.624;2023-04-25T00:35:47;4.1;;;1.7;;
49582;SDS011;36329;48.816;44.624;2023-04-25T00:38:49;4;;;1.6;;
49582;SDS011;36329;48.816;44.624;2023-04-25T00:41:52;3.9;;;1.7;;
49582;SDS011;36329;48.816;44.624;2023-04-25T00:44:58;3.2;;;1.7;;
49582;SDS011;36329;48.816;44.624;2023-04-25T00:48:02;5.8;;;1.6;;
49582;SDS011;36329;48.816;44.624;2023-04-25T00:51:05;2.7;;;1.8;;
49582;SDS011;36329;48.816;44.624;2023-04-25T00:54:08;5.1;;;1.6;;
49582;SDS011;36329;48.816;44.624;2023-04-25T00:57:10;3.6;;;2;;
49582;SDS011;36329;48.816;44.624;2023-04-25T01:00:13;4.6;;;1.7;;
49582;SDS011;36329;48.816;44.624;2023-04-25T01:03:16;4.8;;;1.8;;
49582;SDS011;36329;48.816;44.624;2023-04-25T01:06:19;4.7;;;2.1;;
49582;SDS011;36329;48.816;44.624;2023-04-25T01:09:22;6.6;;;1.9;;
49582;SDS011;36329;48.816;44.624;2023-04-25T01:12:24;5.9;;;1.6;;
49582;SDS011;36329;48.816;44.624;2023-04-25T01:15:26;4.1;;;1.9;;
49582;SDS011;36329;48.816;44.624;2023-04-25T01:18:28;5.6;;;1.8;;
49582;SDS011;36329;48.816;44.624;2023-04-25T01:21:31;7.8;;;2;;
49582;SDS011;36329;48.816;44.624;2023-04-25T01:24:34;4.6;;;1.9;;
49582;SDS011;36329;48.816;44.624;2023-04-25T01:27:37;5.7;;;2.2;;
49582;SDS011;36329;48.816;44.624;2023-04-25T01:30:39;4.8;;;2.1;;
49582;SDS011;36329;48.816;44.624;2023-04-25T01:33:43;4.7;;;2.1;;
49582;SDS011;36329;48.816;44.624;2023-04-25T01:36:46;4.9;;;1.9;;
49582;SDS011;36329;48.816;44.624;2023-04-25T01:39:50;4.7;;;2.1;;
49582;SDS011;36329;48.816;44.624;2023-04-25T01:42:52;4.6;;;1.9;;
49582;SDS011;36329;48.816;44.624;2023-04-25T01:45:56;3.6;;;1.9;;
49582;SDS011;36329;48.816;44.624;2023-04-25T01:48:59;5.1;;;2;;
49582;SDS011;36329;48.816;44.624;2023-04-25T01:52:01;5.5;;;2;;
49582;SDS011;36329;48.816;44.624;2023-04-25T01:55:05;4.4;;;2.1;;
49582;SDS011;36329;48.816;44.624;2023-04-25T01:58:08;8.1;;;2;;
49582;SDS011;36329;48.816;44.624;2023-04-25T02:01:10;7.6;;;1.8;;
49582;SDS011;36329;48.816;44.624;2023-04-25T02:04:13;4.8;;;2;;
49582;SDS011;36329;48.816;44.624;2023-04-25T02:07:15;7.7;;;2.1;;
49582;SDS011;36329;48.816;44.624;2023-04-25T02:10:17;3.8;;;2;;
49582;SDS011;36329;48.816;44.624;2023-04-25T02:13:20;7.4;;;2.2;;
49582;SDS011;36329;48.816;44.624;2023-04-25T02:16:22;3.6;;;2;;
49582;SDS011;36329;48.816;44.624;2023-04-25T02:19:29;6.1;;;2.1;;
49582;SDS011;36329;48.816;44.624;2023-04-25T02:22:31;6.5;;;2.1;;
49582;SDS011;36329;48.816;44.624;2023-04-25T02:25:33;7.3;;;2.2;;
49582;SDS011;36329;48.816;44.624;2023-04-25T02:28:35;5.9;;;2.5;;
49582;SDS011;36329;48.816;44.624;2023-04-25T02:31:37;4.4;;;1.9;;
49582;SDS011;36329;48.816;44.624;2023-04-25T02:34:40;7.1;;;2.2;;
49582;SDS011;36329;48.816;44.624;2023-04-25T02:37:42;7;;;2.3;;
49582;SDS011;36329;48.816;44.624;2023-04-25T02:40:44;7.9;;;2.2;;
49582;SDS011;36329;48.816;44.624;2023-04-25T02:43:47;8.4;;;2.2;;
49582;SDS011;36329;48.816;44.624;2023-04-25T02:46:49;8.4;;;2.1;;
49582;SDS011;36329;48.816;44.624;2023-04-25T02:49:51;4.1;;;2;;
49582;SDS011;36329;48.816;44.624;2023-04-25T02:52:54;5.5;;;2.1;;
49582;SDS011;36329;48.816;44.624;2023-04-25T02:55:56;7.7;;;2.3;;
49582;SDS011;36329;48.816;44.624;2023-04-25T02:58:58;9.5;;;2.3;;
49582;SDS011;36329;48.816;44.624;2023-04-25T03:02:00;5.2;;;2;;
49582;SDS011;36329;48.816;44.624;2023-04-25T03:05:03;7.4;;;2.4;;
49582;SDS011;36329;48.816;44.624;2023-04-25T03:08:06;5.3;;;2;;
49582;SDS011;36329;48.816;44.624;2023-04-25T03:11:09;9.1;;;2.1;;
49582;SDS011;36329;48.816;44.624;2023-04-25T03:14:11;7.3;;;2.5;;
49582;SDS011;36329;48.816;44.624;2023-04-25T03:17:14;5.2;;;2.1;;
49582;SDS011;36329;48.816;44.624;2023-04-25T03:20:17;6.1;;;2.1;;
49582;SDS011;36329;48.816;44.624;2023-04-25T03:23:19;7.4;;;2.1;;
49582;SDS011;36329;48.816;44.624;2023-04-25T03:26:21;4.9;;;2.1;;
49582;SDS011;36329;48.816;44.624;2023-04-25T03:29:23;7.1;;;1.9;;
49582;SDS011;36329;48.816;44.624;2023-04-25T03:32:25;5.5;;;2.1;;
49582;SDS011;36329;48.816;44.624;2023-04-25T03:35:27;5.8;;;2.2;;
49582;SDS011;36329;48.816;44.624;2023-04-25T03:38:29;5.9;;;2.3;;
49582;SDS011;36329;48.816;44.624;2023-04-25T03:41:31;9.2;;;2.5;;
49582;SDS011;36329;48.816;44.624;2023-04-25T03:44:33;5.9;;;2.3;;
49582;SDS011;36329;48.816;44.624;2023-04-25T03:47:35;8.3;;;2.1;;
49582;SDS011;36329;48.816;44.624;2023-04-25T03:50:37;7.2;;;2.4;;
49582;SDS011;36329;48.816;44.624;2023-04-25T03:53:39;6.6;;;2.3;;
49582;SDS011;36329;48.816;44.624;2023-04-25T03:56:42;9.5;;;2.4;;
49582;SDS011;36329;48.816;44.624;2023-04-25T03:59:44;7.4;;;2.1;;
49582;SDS011;36329;48.816;44.624;2023-04-25T04:02:46;11.1;;;2.5;;
49582;SDS011;36329;48.816;44.624;2023-04-25T04:05:48;8;;;2.3;;
49582;SDS011;36329;48.816;44.624;2023-04-25T04:08:50;7.3;;;2.5;;
49582;SDS011;36329;48.816;44.624;2023-04-25T04:11:52;6.7;;;2.3;;
49582;SDS011;36329;48.816;44.624;2023-04-25T04:14:56;9;;;2.7;;
49582;SDS011;36329;48.816;44.624;2023-04-25T04:17:58;7.7;;;2.6;;
49582;SDS011;36329;48.816;44.624;2023-04-25T04:21:01;6.2;;;2.4;;
49582;SDS011;36329;48.816;44.624;2023-04-25T04:24:03;7.1;;;2.6;;
49582;SDS011;36329;48.816;44.624;2023-04-25T04:27:06;8.9;;;2.8;;
49582;SDS011;36329;48.816;44.624;2023-04-25T04:30:08;10;;;2.8;;
49582;SDS011;36329;48.816;44.624;2023-04-25T04:33:11;11.8;;;3;;
49582;SDS011;36329;48.816;44.624;2023-04-25T04:36:14;12.9;;;3.6;;
49582;SDS011;36329;48.816;44.624;2023-04-25T04:39:16;8.4;;;3.3;;
49582;SDS011;36329;48.816;44.624;2023-04-25T04:42:20;12.6;;;3.6;;
49582;SDS011;36329;48.816;44.624;2023-04-25T04:45:23;10.7;;;3.5;;
49582;SDS011;36329;48.816;44.624;2023-04-25T04:48:25;11.1;;;3.6;;
49582;SDS011;36329;48.816;44.624;2023-04-25T04:51:28;13;;;3.9;;
49582;SDS011;36329;48.816;44.624;2023-04-25T04:54:30;10.4;;;3.7;;
49582;SDS011;36329;48.816;44.624;2023-04-25T04:57:32;12.8;;;3.5;;
49582;SDS011;36329;48.816;44.624;2023-04-25T05:00:34;13.4;;;3.9;;
49582;SDS011;36329;48.816;44.624;2023-04-25T05:03:36;7.6;;;2.7;;
49582;SDS011;36329;48.816;44.624;2023-04-25T05:06:38;9.8;;;3;;
49582;SDS011;36329;48.816;44.624;2023-04-25T05:09:40;12.4;;;3.3;;
49582;SDS011;36329;48.816;44.624;2023-04-25T05:12:42;8.2;;;3.1;;
49582;SDS011;36329;48.816;44.624;2023-04-25T05:15:45;10.7;;;3.3;;
49582;SDS011;36329;48.816;44.624;2023-04-25T05:18:47;9.3;;;3;;
49582;SDS011;36329;48.816;44.624;2023-04-25T05:21:49;10.8;;;2.9;;
49582;SDS011;36329;48.816;44.624;2023-04-25T05:24:52;10.9;;;2.9;;
49582;SDS011;36329;48.816;44.624;2023-04-25T05:28:10;11.2;;;3.1;;
49582;SDS011;36329;48.816;44.624;2023-04-25T05:31:12;10.3;;;2.8;;
49582;SDS011;36329;48.816;44.624;2023-04-25T05:34:14;8.5;;;2.9;;
49582;SDS011;36329;48.816;44.624;2023-04-25T05:37:16;12.9;;;3.1;;
49582;SDS011;36329;48.816;44.624;2023-04-25T05:40:18;9.1;;;3;;
49582;SDS011;36329;48.816;44.624;2023-04-25T05:43:22;9.9;;;3.1;;
49582;SDS011;36329;48.816;44.624;2023-04-25T05:46:25;9.9;;;2.7;;
49582;SDS011;36329;48.816;44.624;2023-04-25T05:49:27;7.5;;;2.9;;
49582;SDS011;36329;48.816;44.624;2023-04-25T05:52:29;8.3;;;3;;
49582;SDS011;36329;48.816;44.624;2023-04-25T05:55:31;6.5;;;2.5;;
49582;SDS011;36329;48.816;44.624;2023-04-25T05:58:34;6.3;;;2.4;;
49582;SDS011;36329;48.816;44.624;2023-04-25T06:01:36;8;;;2.5;;
49582;SDS011;36329;48.816;44.624;2023-04-25T06:04:38;9.3;;;2.8;;
49582;SDS011;36329;48.816;44.624;2023-04-25T06:07:41;11.5;;;2.8;;
49582;SDS011;36329;48.816;44.624;2023-04-25T06:10:43;8.4;;;2.7;;
49582;SDS011;36329;48.816;44.624;2023-04-25T06:13:45;7.6;;;2.8;;
49582;SDS011;36329;48.816;44.624;2023-04-25T06:16:48;9.3;;;3;;
49582;SDS011;36329;48.816;44.624;2023-04-25T06:19:50;8.5;;;2.7;;
49582;SDS011;36329;48.816;44.624;2023-04-25T06:22:52;7.5;;;3.6;;
49582;SDS011;36329;48.816;44.624;2023-04-25T06:25:55;10.9;;;2.7;;
49582;SDS011;36329;48.816;44.624;2023-04-25T06:28:57;5.9;;;2.7;;
49582;SDS011;36329;48.816;44.624;2023-04-25T06:32:01;7.3;;;2.7;;
49582;SDS011;36329;48.816;44.624;2023-04-25T06:35:04;9.1;;;2.8;;
49582;SDS011;36329;48.816;44.624;2023-04-25T06:38:06;9.6;;;3.8;;
49582;SDS011;36329;48.816;44.624;2023-04-25T06:41:09;13.4;;;4.4;;
49582;SDS011;36329;48.816;44.624;2023-04-25T06:44:12;9.1;;;3.9;;
49582;SDS011;36329;48.816;44.624;2023-04-25T06:47:21;10.8;;;4.4;;
49582;SDS011;36329;48.816;44.624;2023-04-25T06:50:30;11.5;;;3.8;;
49582;SDS011;36329;48.816;44.624;2023-04-25T06:53:34;10.3;;;3.3;;
49582;SDS011;36329;48.816;44.624;2023-04-25T06:56:40;9.8;;;3.1;;
49582;SDS011;36329;48.816;44.624;2023-04-25T06:59:50;7.9;;;2.8;;
49582;SDS011;36329;48.816;44.624;2023-04-25T07:02:53;8.9;;;3.1;;
49582;SDS011;36329;48.816;44.624;2023-04-25T07:05:56;8;;;2.9;;
49582;SDS011;36329;48.816;44.624;2023-04-25T07:08:58;7.9;;;2.9;;
49582;SDS011;36329;48.816;44.624;2023-04-25T07:12:00;11.1;;;3.4;;
49582;SDS011;36329;48.816;44.624;2023-04-25T07:15:03;10.3;;;3.9;;
49582;SDS011;36329;48.816;44.624;2023-04-25T07:18:06;11.8;;;5.2;;
49582;SDS011;36329;48.816;44.624;2023-04-25T07:21:09;9.8;;;4;;
49582;SDS011;36329;48.816;44.624;2023-04-25T07:24:11;12;;;3.8;;
49582;SDS011;36329;48.816;44.624;2023-04-25T07:27:13;9;;;3.3;;
49582;SDS011;36329;48.816;44.624;2023-04-25T07:30:15;12.3;;;3.4;;
49582;SDS011;36329;48.816;44.624;2023-04-25T07:33:18;8.5;;;3.1;;
49582;SDS011;36329;48.816;44.624;2023-04-25T07:36:20;7.9;;;3;;
49582;SDS011;36329;48.816;44.624;2023-04-25T07:39:22;11.6;;;3.9;;
49582;SDS011;36329;48.816;44.624;2023-04-25T07:42:24;13;;;4;;
49582;SDS011;36329;48.816;44.624;2023-04-25T07:45:26;11.2;;;3.6;;
49582;SDS011;36329;48.816;44.624;2023-04-25T07:48:28;9.5;;;3.3;;
49582;SDS011;36329;48.816;44.624;2023-04-25T07:51:30;9.6;;;3.9;;
49582;SDS011;36329;48.816;44.624;2023-04-25T07:54:32;10.7;;;3.6;;
49582;SDS011;36329;48.816;44.624;2023-04-25T07:57:35;9.3;;;3.7;;
49582;SDS011;36329;48.816;44.624;2023-04-25T08:00:38;6.9;;;3;;
49582;SDS011;36329;48.816;44.624;2023-04-25T08:03:41;13;;;3.7;;
49582;SDS011;36329;48.816;44.624;2023-04-25T08:06:43;11.7;;;3.7;;
49582;SDS011;36329;48.816;44.624;2023-04-25T08:09:45;9.7;;;3.4;;
49582;SDS011;36329;48.816;44.624;2023-04-25T08:12:47;8.5;;;3.7;;
49582;SDS011;36329;48.816;44.624;2023-04-25T08:15:49;8.8;;;4;;
49582;SDS011;36329;48.816;44.624;2023-04-25T08:18:51;11.1;;;3.9;;
49582;SDS011;36329;48.816;44.624;2023-04-25T08:21:53;10.9;;;3.8;;
49582;SDS011;36329;48.816;44.624;2023-04-25T08:24:56;12;;;4.2;;
49582;SDS011;36329;48.816;44.624;2023-04-25T08:27:58;11.3;;;3.6;;
49582;SDS011;36329;48.816;44.624;2023-04-25T08:31:00;12.2;;;4;;
49582;SDS011;36329;48.816;44.624;2023-04-25T08:34:02;11.7;;;4.2;;
49582;SDS011;36329;48.816;44.624;2023-04-25T08:37:04;10.7;;;3.8;;
49582;SDS011;36329;48.816;44.624;2023-04-25T08:40:07;10.2;;;3.8;;
49582;SDS011;36329;48.816;44.624;2023-04-25T08:43:13;9.7;;;3.8;;
49582;SDS011;36329;48.816;44.624;2023-04-25T08:46:16;12.5;;;3.8;;
49582;SDS011;36329;48.816;44.624;2023-04-25T08:49:20;10.5;;;3.7;;
49582;SDS011;36329;48.816;44.624;2023-04-25T08:52:23;11.7;;;3.9;;
49582;SDS011;36329;48.816;44.624;2023-04-25T08:55:25;8.8;;;3.6;;
49582;SDS011;36329;48.816;44.624;2023-04-25T08:58:28;11.6;;;3.7;;
49582;SDS011;36329;48.816;44.624;2023-04-25T09:01:30;10.8;;;3.6;;
49582;SDS011;36329;48.816;44.624;2023-04-25T09:04:32;10.7;;;3.3;;
49582;SDS011;36329;48.816;44.624;2023-04-25T09:07:35;9.2;;;3.4;;
49582;SDS011;36329;48.816;44.624;2023-04-25T09:10:37;13;;;3.2;;
49582;SDS011;36329;48.816;44.624;2023-04-25T09:13:39;12.9;;;3.3;;
49582;SDS011;36329;48.816;44.624;2023-04-25T09:20:06;11.8;;;3.1;;
49582;SDS011;36329;48.816;44.624;2023-04-25T09:23:10;7.7;;;2.9;;
49582;SDS011;36329;48.816;44.624;2023-04-25T09:26:13;8.7;;;2.6;;
49582;SDS011;36329;48.816;44.624;2023-04-25T09:29:17;9.5;;;2.6;;
49582;SDS011;36329;48.816;44.624;2023-04-25T09:32:19;13.6;;;2.9;;
49582;SDS011;36329;48.816;44.624;2023-04-25T09:35:24;11;;;3.1;;
49582;SDS011;36329;48.816;44.624;2023-04-25T09:38:26;11;;;2.8;;
49582;SDS011;36329;48.816;44.624;2023-04-25T09:41:28;6.2;;;2.5;;
49582;SDS011;36329;48.816;44.624;2023-04-25T09:44:30;8.7;;;2.6;;
49582;SDS011;36329;48.816;44.624;2023-04-25T09:47:36;9.5;;;2.7;;
49582;SDS011;36329;48.816;44.624;2023-04-25T09:50:40;12.2;;;2.4;;
49582;SDS011;36329;48.816;44.624;2023-04-25T09:53:42;10.7;;;2.7;;
49582;SDS011;36329;48.816;44.624;2023-04-25T09:56:45;7.1;;;2.6;;
49582;SDS011;36329;48.816;44.624;2023-04-25T09:59:50;12.8;;;2.7;;
49582;SDS011;36329;48.816;44.624;2023-04-25T10:02:54;17.7;;;3.1;;
49582;SDS011;36329;48.816;44.624;2023-04-25T10:05:59;11.8;;;2.8;;
49582;SDS011;36329;48.816;44.624;2023-04-25T10:09:02;12.2;;;2.9;;
49582;SDS011;36329;48.816;44.624;2023-04-25T10:12:05;13.1;;;2.8;;
49582;SDS011;36329;48.816;44.624;2023-04-25T10:15:08;13;;;3.3;;
49582;SDS011;36329;48.816;44.624;2023-04-25T10:18:11;10.3;;;2.9;;
49582;SDS011;36329;48.816;44.624;2023-04-25T10:21:14;10.6;;;2.6;;
49582;SDS011;36329;48.816;44.624;2023-04-25T10:24:17;8.7;;;2.5;;
49582;SDS011;36329;48.816;44.624;2023-04-25T10:27:22;11.5;;;3.2;;
49582;SDS011;36329;48.816;44.624;2023-04-25T10:30:24;17.6;;;3.4;;
49582;SDS011;36329;48.816;44.624;2023-04-25T10:33:32;13.9;;;2.7;;
49582;SDS011;36329;48.816;44.624;2023-04-25T10:36:36;8.3;;;2.4;;
49582;SDS011;36329;48.816;44.624;2023-04-25T10:39:39;11.8;;;2.4;;
49582;SDS011;36329;48.816;44.624;2023-04-25T10:42:42;7.9;;;2.1;;
49582;SDS011;36329;48.816;44.624;2023-04-25T10:45:51;9.4;;;2.2;;
49582;SDS011;36329;48.816;44.624;2023-04-25T10:48:54;13.2;;;2.2;;
49582;SDS011;36329;48.816;44.624;2023-04-25T10:55:14;8.1;;;2.4;;
49582;SDS011;36329;48.816;44.624;2023-04-25T10:58:18;6.7;;;1.6;;
49582;SDS011;36329;48.816;44.624;2023-04-25T11:01:24;6.6;;;2;;
49582;SDS011;36329;48.816;44.624;2023-04-25T11:04:29;6.9;;;2.1;;
49582;SDS011;36329;48.816;44.624;2023-04-25T11:07:34;18;;;5.3;;
49582;SDS011;36329;48.816;44.624;2023-04-25T11:10:40;6;;;2;;
49582;SDS011;36329;48.816;44.624;2023-04-25T11:13:43;8.5;;;2.1;;
49582;SDS011;36329;48.816;44.624;2023-04-25T11:16:45;8.2;;;1.9;;
49582;SDS011;36329;48.816;44.624;2023-04-25T11:19:48;13.7;;;4.1;;
49582;SDS011;36329;48.816;44.624;2023-04-25T11:22:50;14.9;;;4.9;;
49582;SDS011;36329;48.816;44.624;2023-04-25T11:25:52;18.3;;;4.1;;
49582;SDS011;36329;48.816;44.624;2023-04-25T11:28:57;6.8;;;1.9;;
49582;SDS011;36329;48.816;44.624;2023-04-25T11:31:59;10.1;;;2.7;;
49582;SDS011;36329;48.816;44.624;2023-04-25T11:35:02;9.3;;;2.6;;
49582;SDS011;36329;48.816;44.624;2023-04-25T11:38:05;9.1;;;2.1;;
49582;SDS011;36329;48.816;44.624;2023-04-25T11:41:07;7.8;;;1.7;;
49582;SDS011;36329;48.816;44.624;2023-04-25T11:44:10;7.7;;;2.2;;
49582;SDS011;36329;48.816;44.624;2023-04-25T11:47:13;6;;;1.9;;
49582;SDS011;36329;48.816;44.624;2023-04-25T11:50:15;11.5;;;3.2;;
49582;SDS011;36329;48.816;44.624;2023-04-25T11:53:17;6.4;;;1.7;;
49582;SDS011;36329;48.816;44.624;2023-04-25T11:56:20;4.2;;;1.7;;
49582;SDS011;36329;48.816;44.624;2023-04-25T11:59:23;11;;;2.1;;
49582;SDS011;36329;48.816;44.624;2023-04-25T12:02:26;11.4;;;2.6;;
49582;SDS011;36329;48.816;44.624;2023-04-25T12:05:30;7.3;;;1.8;;
49582;SDS011;36329;48.816;44.624;2023-04-25T12:08:33;6.4;;;1.5;;
49582;SDS011;36329;48.816;44.624;2023-04-25T12:11:40;6.5;;;2;;
49582;SDS011;36329;48.816;44.624;2023-04-25T12:14:45;7.3;;;1.9;;
49582;SDS011;36329;48.816;44.624;2023-04-25T12:17:49;5.5;;;1.7;;
49582;SDS011;36329;48.816;44.624;2023-04-25T12:20:52;11.2;;;1.8;;
49582;SDS011;36329;48.816;44.624;2023-04-25T12:23:55;10.2;;;2.4;;
49582;SDS011;36329;48.816;44.624;2023-04-25T12:26:59;12.3;;;4.2;;
49582;SDS011;36329;48.816;44.624;2023-04-25T12:30:07;8.1;;;1.9;;
49582;SDS011;36329;48.816;44.624;2023-04-25T12:33:10;32.3;;;11.3;;
49582;SDS011;36329;48.816;44.624;2023-04-25T12:36:13;7.1;;;1.5;;
49582;SDS011;36329;48.816;44.624;2023-04-25T12:39:16;10.1;;;2.7;;
49582;SDS011;36329;48.816;44.624;2023-04-25T12:42:18;5.1;;;1.5;;
49582;SDS011;36329;48.816;44.624;2023-04-25T12:45:20;11.1;;;2.5;;
49582;SDS011;36329;48.816;44.624;2023-04-25T12:48:23;5;;;1.8;;
49582;SDS011;36329;48.816;44.624;2023-04-25T12:51:26;9;;;1.6;;
49582;SDS011;36329;48.816;44.624;2023-04-25T12:54:29;3.3;;;1.3;;
49582;SDS011;36329;48.816;44.624;2023-04-25T12:57:31;7.1;;;1.5;;
49582;SDS011;36329;48.816;44.624;2023-04-25T13:00:33;6.9;;;1.7;;
49582;SDS011;36329;48.816;44.624;2023-04-25T13:03:35;4.7;;;1.2;;
49582;SDS011;36329;48.816;44.624;2023-04-25T13:06:37;2.6;;;1.2;;
49582;SDS011;36329;48.816;44.624;2023-04-25T13:09:40;9.9;;;3.2;;
49582;SDS011;36329;48.816;44.624;2023-04-25T13:12:42;5.7;;;1.7;;
49582;SDS011;36329;48.816;44.624;2023-04-25T13:15:44;5;;;1.2;;
49582;SDS011;36329;48.816;44.624;2023-04-25T13:18:46;3.4;;;1.4;;
49582;SDS011;36329;48.816;44.624;2023-04-25T13:21:49;6.6;;;1.8;;
49582;SDS011;36329;48.816;44.624;2023-04-25T13:24:51;4.5;;;1.5;;
49582;SDS011;36329;48.816;44.624;2023-04-25T13:27:53;4.3;;;1.2;;
49582;SDS011;36329;48.816;44.624;2023-04-25T13:30:56;7.2;;;2.1;;
49582;SDS011;36329;48.816;44.624;2023-04-25T13:33:58;14.7;;;4.9;;
49582;SDS011;36329;48.816;44.624;2023-04-25T13:37:03;3.9;;;1.3;;
49582;SDS011;36329;48.816;44.624;2023-04-25T13:40:12;6.7;;;1.9;;
49582;SDS011;36329;48.816;44.624;2023-04-25T13:43:14;16.2;;;4.4;;
49582;SDS011;36329;48.816;44.624;2023-04-25T13:46:16;5.1;;;1;;
49582;SDS011;36329;48.816;44.624;2023-04-25T13:49:18;0.9;;;0.8;;
49582;SDS011;36329;48.816;44.624;2023-04-25T13:52:20;6.2;;;1;;
49582;SDS011;36329;48.816;44.624;2023-04-25T13:55:25;2.5;;;1.1;;
49582;SDS011;36329;48.816;44.624;2023-04-25T13:58:28;5.1;;;0.8;;
49582;SDS011;36329;48.816;44.624;2023-04-25T14:01:30;4;;;0.6;;
49582;SDS011;36329;48.816;44.624;2023-04-25T14:04:32;5.3;;;0.9;;
49582;SDS011;36329;48.816;44.624;2023-04-25T14:07:35;4.1;;;1.2;;
49582;SDS011;36329;48.816;44.624;2023-04-25T14:10:37;5.1;;;1.5;;
49582;SDS011;36329;48.816;44.624;2023-04-25T14:13:39;4.8;;;1.2;;
49582;SDS011;36329;48.816;44.624;2023-04-25T14:16:41;5.4;;;1;;
49582;SDS011;36329;48.816;44.624;2023-04-25T14:19:43;4.2;;;1;;
49582;SDS011;36329;48.816;44.624;2023-04-25T14:22:45;2.8;;;1.8;;
49582;SDS011;36329;48.816;44.624;2023-04-25T14:25:48;5.7;;;1.6;;
49582;SDS011;36329;48.816;44.624;2023-04-25T14:28:51;6;;;1.7;;
49582;SDS011;36329;48.816;44.624;2023-04-25T14:31:53;3.2;;;1.2;;
49582;SDS011;36329;48.816;44.624;2023-04-25T14:34:55;3.5;;;1.2;;
49582;SDS011;36329;48.816;44.624;2023-04-25T14:37:57;5.3;;;1.2;;
49582;SDS011;36329;48.816;44.624;2023-04-25T14:41:00;1.4;;;0.9;;
49582;SDS011;36329;48.816;44.624;2023-04-25T14:44:02;3.5;;;1.1;;
49582;SDS011;36329;48.816;44.624;2023-04-25T14:47:04;2.8;;;0.8;;
49582;SDS011;36329;48.816;44.624;2023-04-25T14:50:06;5.2;;;1.1;;
49582;SDS011;36329;48.816;44.624;2023-04-25T14:53:09;4.5;;;0.6;;
49582;SDS011;36329;48.816;44.624;2023-04-25T14:56:11;4.3;;;0.6;;
49582;SDS011;36329;48.816;44.624;2023-04-25T14:59:13;7.5;;;0.8;;
49582;SDS011;36329;48.816;44.624;2023-04-25T15:02:16;5.1;;;1.3;;
49582;SDS011;36329;48.816;44.624;2023-04-25T15:05:18;4.2;;;1.1;;
49582;SDS011;36329;48.816;44.624;2023-04-25T15:08:21;4.8;;;0.8;;
49582;SDS011;36329;48.816;44.624;2023-04-25T15:11:23;7.8;;;1;;
49582;SDS011;36329;48.816;44.624;2023-04-25T15:14:25;3.6;;;0.8;;
49582;SDS011;36329;48.816;44.624;2023-04-25T15:17:27;1.8;;;0.6;;
49582;SDS011;36329;48.816;44.624;2023-04-25T15:20:29;2.8;;;0.9;;
49582;SDS011;36329;48.816;44.624;2023-04-25T15:23:31;6;;;1;;
49582;SDS011;36329;48.816;44.624;2023-04-25T15:26:33;4;;;0.9;;
49582;SDS011;36329;48.816;44.624;2023-04-25T15:29:36;3;;;1;;
49582;SDS011;36329;48.816;44.624;2023-04-25T15:32:38;9.3;;;1.1;;
49582;SDS011;36329;48.816;44.624;2023-04-25T15:35:40;4.2;;;1;;
49582;SDS011;36329;48.816;44.624;2023-04-25T15:38:42;7.4;;;0.8;;
49582;SDS011;36329;48.816;44.624;2023-04-25T15:41:45;2.2;;;0.6;;
49582;SDS011;36329;48.816;44.624;2023-04-25T15:44:48;6.4;;;1;;
49582;SDS011;36329;48.816;44.624;2023-04-25T15:47:50;2.3;;;0.7;;
49582;SDS011;36329;48.816;44.624;2023-04-25T15:50:53;3.5;;;1;;
49582;SDS011;36329;48.816;44.624;2023-04-25T15:53:55;5.6;;;0.6;;
49582;SDS011;36329;48.816;44.624;2023-04-25T15:56:59;2.7;;;0.8;;
49582;SDS011;36329;48.816;44.624;2023-04-25T16:00:02;3;;;0.7;;
49582;SDS011;36329;48.816;44.624;2023-04-25T16:03:06;4.4;;;1;;
49582;SDS011;36329;48.816;44.624;2023-04-25T16:06:09;6.6;;;0.9;;
49582;SDS011;36329;48.816;44.624;2023-04-25T16:09:11;5.3;;;2.1;;
49582;SDS011;36329;48.816;44.624;2023-04-25T16:12:13;3.3;;;1.1;;
49582;SDS011;36329;48.816;44.624;2023-04-25T16:15:17;3.6;;;1.4;;
49582;SDS011;36329;48.816;44.624;2023-04-25T16:18:19;1.2;;;0.7;;
49582;SDS011;36329;48.816;44.624;2023-04-25T16:21:21;2.9;;;1;;
49582;SDS011;36329;48.816;44.624;2023-04-25T16:24:23;3.4;;;1.2;;
49582;SDS011;36329;48.816;44.624;2023-04-25T16:27:26;6.6;;;1;;
49582;SDS011;36329;48.816;44.624;2023-04-25T16:30:28;3;;;0.8;;
49582;SDS011;36329;48.816;44.624;2023-04-25T16:33:30;2.1;;;0.8;;
49582;SDS011;36329;48.816;44.624;2023-04-25T16:36:32;2.2;;;0.9;;
49582;SDS011;36329;48.816;44.624;2023-04-25T16:39:34;3.5;;;0.9;;
49582;SDS011;36329;48.816;44.624;2023-04-25T16:42:36;2.3;;;1.1;;
49582;SDS011;36329;48.816;44.624;2023-04-25T16:45:39;6.2;;;1.3;;
49582;SDS011;36329;48.816;44.624;2023-04-25T16:48:41;3.1;;;0.9;;
49582;SDS011;36329;48.816;44.624;2023-04-25T16:51:43;7.5;;;1.6;;
49582;SDS011;36329;48.816;44.624;2023-04-25T16:54:45;4.6;;;1.1;;
49582;SDS011;36329;48.816;44.624;2023-04-25T16:57:48;5.1;;;1.1;;
49582;SDS011;36329;48.816;44.624;2023-04-25T17:00:51;4.7;;;1;;
49582;SDS011;36329;48.816;44.624;2023-04-25T17:03:53;4.6;;;1.1;;
49582;SDS011;36329;48.816;44.624;2023-04-25T17:06:55;7.6;;;1.2;;
49582;SDS011;36329;48.816;44.624;2023-04-25T17:09:57;6.8;;;1.3;;
49582;SDS011;36329;48.816;44.624;2023-04-25T17:13:00;7.7;;;1.1;;
49582;SDS011;36329;48.816;44.624;2023-04-25T17:16:02;5.3;;;1.2;;
49582;SDS011;36329;48.816;44.624;2023-04-25T17:19:04;2.8;;;1;;
49582;SDS011;36329;48.816;44.624;2023-04-25T17:22:07;6.1;;;1;;
49582;SDS011;36329;48.816;44.624;2023-04-25T17:25:10;2.7;;;0.9;;
49582;SDS011;36329;48.816;44.624;2023-04-25T17:28:12;3.4;;;1.1;;
49582;SDS011;36329;48.816;44.624;2023-04-25T17:31:14;3.7;;;1.3;;
49582;SDS011;36329;48.816;44.624;2023-04-25T17:34:17;3.6;;;1.2;;
49582;SDS011;36329;48.816;44.624;2023-04-25T17:37:19;6;;;1.2;;
49582;SDS011;36329;48.816;44.624;2023-04-25T17:40:21;5.9;;;1.4;;
49582;SDS011;36329;48.816;44.624;2023-04-25T17:43:24;5.3;;;1.2;;
49582;SDS011;36329;48.816;44.624;2023-04-25T17:46:26;4.3;;;1.5;;
49582;SDS011;36329;48.816;44.624;2023-04-25T17:49:28;3.5;;;1.2;;
49582;SDS011;36329;48.816;44.624;2023-04-25T17:52:33;9.8;;;1.6;;
49582;SDS011;36329;48.816;44.624;2023-04-25T17:55:35;6.1;;;1.5;;
49582;SDS011;36329;48.816;44.624;2023-04-25T17:58:37;10.6;;;1.8;;
49582;SDS011;36329;48.816;44.624;2023-04-25T18:01:39;5.1;;;1.6;;
49582;SDS011;36329;48.816;44.624;2023-04-25T18:04:42;3.4;;;1.2;;
49582;SDS011;36329;48.816;44.624;2023-04-25T18:07:44;4.2;;;1.3;;
49582;SDS011;36329;48.816;44.624;2023-04-25T18:10:46;10.1;;;1.6;;
49582;SDS011;36329;48.816;44.624;2023-04-25T18:13:49;6.9;;;1.8;;
49582;SDS011;36329;48.816;44.624;2023-04-25T18:16:51;7.4;;;2;;
49582;SDS011;36329;48.816;44.624;2023-04-25T18:19:54;5.2;;;1.7;;
49582;SDS011;36329;48.816;44.624;2023-04-25T18:22:56;5.5;;;1.8;;
49582;SDS011;36329;48.816;44.624;2023-04-25T18:25:59;3.6;;;1.7;;
49582;SDS011;36329;48.816;44.624;2023-04-25T18:29:01;6.5;;;1.9;;
49582;SDS011;36329;48.816;44.624;2023-04-25T18:32:03;4.4;;;2;;
49582;SDS011;36329;48.816;44.624;2023-04-25T18:35:06;8.8;;;2.2;;
49582;SDS011;36329;48.816;44.624;2023-04-25T18:38:08;7.4;;;2.2;;
49582;SDS011;36329;48.816;44.624;2023-04-25T18:41:10;7.6;;;2;;
49582;SDS011;36329;48.816;44.624;2023-04-25T18:44:12;5.6;;;2.1;;
49582;SDS011;36329;48.816;44.624;2023-04-25T18:47:15;7.8;;;1.8;;